Time,TemperatureF,DewpointF,PressureIn,WindDirection,WindDirectionDegrees,WindSpeedMPH,WindSpeedGustMPH,Humidity,HourlyPrecipIn,Conditions,Clouds,dailyrainin,SoftwareType,DateUTC
2013-04-08 07:40:00,60.3,35.2,29.44,SSE,168,18.0,18.0,39,0.00,,,0.00,Wunderground v.1.15,2013-04-08 14:40:00,
2013-04-08 07:50:00,60.6,34.8,29.44,SE,146,19.0,19.0,38,0.00,,,0.00,Wunderground v.1.15,2013-04-08 14:50:00,
2013-04-08 07:55:00,60.7,34.9,29.43,South,182,18.0,24.0,38,0.00,,,0.00,Wunderground v.1.15,2013-04-08 14:55:00,
2013-04-08 08:00:00,61.0,35.2,29.44,South,186,18.0,24.0,38,0.00,,,0.00,Wunderground v.1.15,2013-04-08 15:00:00,
2013-04-08 08:10:00,61.3,34.1,29.43,West,259,19.0,19.0,36,0.00,,,0.00,Wunderground v.1.15,2013-04-08 15:10:00,
2013-04-08 08:15:00,61.3,34.8,29.44,SW,214,19.0,27.0,37,0.00,,,0.00,Wunderground v.1.15,2013-04-08 15:15:00,
2013-04-08 08:25:00,61.6,35.1,29.43,South,172,19.0,28.0,37,0.00,,,0.00,Wunderground v.1.15,2013-04-08 15:25:00,
2013-04-08 08:30:00,61.5,35.0,29.43,SSW,212,18.0,18.0,37,0.00,,,0.00,Wunderground v.1.15,2013-04-08 15:30:00,
2013-04-08 08:40:00,61.9,36.0,29.43,SSW,193,17.0,20.0,38,0.00,,,0.00,Wunderground v.1.15,2013-04-08 15:40:00,
2013-04-08 08:45:00,62.0,37.4,29.43,SE,145,17.0,21.0,40,0.00,,,0.00,Wunderground v.1.15,2013-04-08 15:45:00,
2013-04-08 08:55:00,62.1,38.1,29.42,SSE,154,17.0,26.0,41,0.00,,,0.00,Wunderground v.1.15,2013-04-08 15:55:00,
2013-04-08 09:00:00,62.5,38.5,29.43,SSW,201,16.0,16.0,41,0.00,,,0.00,Wunderground v.1.15,2013-04-08 16:00:00,
2013-04-08 09:10:00,63.3,37.9,29.43,SSW,204,13.0,13.0,39,0.00,,,0.00,Wunderground v.1.15,2013-04-08 16:10:00,
2013-04-08 09:15:00,63.3,37.9,29.42,SSE,158,15.0,15.0,39,0.00,,,0.00,Wunderground v.1.15,2013-04-08 16:15:00,
2013-04-08 09:25:00,63.0,38.3,29.41,WSW,247,18.0,19.0,40,0.00,,,0.00,Wunderground v.1.15,2013-04-08 16:25:00,
2013-04-08 09:30:00,62.3,38.3,29.41,SSE,155,21.0,30.0,41,0.00,,,0.00,Wunderground v.1.15,2013-04-08 16:30:00,
2013-04-08 09:40:00,61.8,39.1,29.42,SSE,156,19.0,22.0,43,0.00,,,0.00,Wunderground v.1.15,2013-04-08 16:40:00,
2013-04-08 09:45:00,61.8,39.6,29.41,SSW,198,17.0,24.0,44,0.00,,,0.00,Wunderground v.1.15,2013-04-08 16:45:00,
2013-04-08 10:05:00,60.9,39.4,29.40,SSE,167,15.0,15.0,45,0.00,,,0.00,Wunderground v.1.15,2013-04-08 17:05:00,
2013-04-08 10:15:00,60.4,39.5,29.39,South,186,16.0,18.0,46,0.00,,,0.00,Wunderground v.1.15,2013-04-08 17:15:00,
2013-04-08 10:25:00,60.1,39.8,29.39,South,185,16.0,17.0,47,0.00,,,0.00,Wunderground v.1.15,2013-04-08 17:25:00,
2013-04-08 10:30:00,60.2,39.3,29.39,SSW,207,17.0,17.0,46,0.00,,,0.00,Wunderground v.1.15,2013-04-08 17:30:00,
2013-04-08 10:40:00,60.3,39.4,29.39,South,190,17.0,17.0,46,0.00,,,0.00,Wunderground v.1.15,2013-04-08 17:40:00,
2013-04-08 10:45:00,60.1,39.2,29.39,South,179,18.0,18.0,46,0.00,,,0.00,Wunderground v.1.15,2013-04-08 17:45:00,
2013-04-08 10:55:00,60.5,38.5,29.39,South,189,17.0,22.0,44,0.00,,,0.00,Wunderground v.1.15,2013-04-08 17:55:00,
2013-04-08 11:00:00,60.8,39.3,29.38,SSW,210,15.0,15.0,45,0.00,,,0.00,Wunderground v.1.15,2013-04-08 18:00:00,
2013-04-08 11:10:00,61.0,38.3,29.38,SSE,162,15.0,20.0,43,0.00,,,0.00,Wunderground v.1.15,2013-04-08 18:10:00,
2013-04-08 11:15:00,61.0,36.5,29.39,SW,219,17.0,20.0,40,0.00,,,0.00,Wunderground v.1.15,2013-04-08 18:15:00,
2013-04-08 11:25:00,61.4,36.2,29.38,South,188,15.0,20.0,39,0.00,,,0.00,Wunderground v.1.15,2013-04-08 18:25:00,
2013-04-08 11:30:00,61.4,36.2,29.37,SW,228,14.0,14.0,39,0.00,,,0.00,Wunderground v.1.15,2013-04-08 18:30:00,
2013-04-08 11:40:00,61.5,36.3,29.37,South,177,11.0,14.0,39,0.00,,,0.00,Wunderground v.1.15,2013-04-08 18:40:00,
2013-04-08 11:45:00,61.6,36.4,29.37,SSW,194,10.0,14.0,39,0.00,,,0.00,Wunderground v.1.15,2013-04-08 18:45:00,
2013-04-08 11:55:00,60.4,37.8,29.38,SSW,209,12.0,12.0,43,0.00,,,0.00,Wunderground v.1.15,2013-04-08 18:55:00,
2013-04-08 12:00:00,60.3,38.9,29.38,West,281,12.0,13.0,45,0.00,,,0.00,Wunderground v.1.15,2013-04-08 19:00:00,
2013-04-08 12:10:00,59.8,40.6,29.36,West,281,9.0,15.0,49,0.00,,,0.00,Wunderground v.1.15,2013-04-08 19:10:00,
2013-04-08 12:15:00,61.1,39.0,29.36,SW,217,12.0,15.0,44,0.00,,,0.00,Wunderground v.1.15,2013-04-08 19:15:00,
2013-04-08 12:25:00,61.6,37.0,29.36,SE,138,11.0,12.0,40,0.00,,,0.00,Wunderground v.1.15,2013-04-08 19:25:00,
2013-04-08 12:30:00,61.3,36.1,29.36,SSW,199,13.0,13.0,39,0.00,,,0.00,Wunderground v.1.15,2013-04-08 19:30:00,
2013-04-08 12:40:00,62.1,35.5,29.36,South,174,11.0,16.0,37,0.00,,,0.00,Wunderground v.1.15,2013-04-08 19:40:00,
2013-04-08 12:45:00,62.0,34.7,29.36,SSW,193,11.0,16.0,36,0.00,,,0.00,Wunderground v.1.15,2013-04-08 19:45:00,
2013-04-08 12:55:00,62.2,32.0,29.36,SW,217,14.0,16.0,32,0.00,,,0.00,Wunderground v.1.15,2013-04-08 19:55:00,
2013-04-08 13:00:00,62.5,30.6,29.36,SSW,213,15.0,15.0,30,0.00,,,0.00,Wunderground v.1.15,2013-04-08 20:00:00,
2013-04-08 13:10:00,62.6,30.7,29.36,SSW,213,15.0,15.0,30,0.00,,,0.00,Wunderground v.1.15,2013-04-08 20:10:00,
2013-04-08 13:15:00,62.8,30.9,29.36,WSW,251,13.0,19.0,30,0.00,,,0.00,Wunderground v.1.15,2013-04-08 20:15:00,
2013-04-08 13:25:00,62.9,31.0,29.35,SW,222,12.0,12.0,30,0.00,,,0.00,Wunderground v.1.15,2013-04-08 20:25:00,
2013-04-08 13:30:00,62.8,31.7,29.36,WSW,250,10.0,10.0,31,0.00,,,0.00,Wunderground v.1.15,2013-04-08 20:30:00,
2013-04-08 13:40:00,62.8,32.5,29.36,SW,224,8.0,12.0,32,0.00,,,0.00,Wunderground v.1.15,2013-04-08 20:40:00,
2013-04-08 13:45:00,62.5,33.0,29.37,WNW,303,7.0,12.0,33,0.00,,,0.00,Wunderground v.1.15,2013-04-08 20:45:00,
2013-04-08 13:55:00,61.9,33.2,29.36,WNW,301,9.0,9.0,34,0.00,,,0.00,Wunderground v.1.15,2013-04-08 20:55:00,
2013-04-08 14:00:00,61.7,33.0,29.36,SSW,210,8.0,11.0,34,0.00,,,0.00,Wunderground v.1.15,2013-04-08 21:00:00,
2013-04-08 14:10:00,61.6,32.9,29.37,SSW,195,8.0,8.0,34,0.00,,,0.00,Wunderground v.1.15,2013-04-08 21:10:00,
2013-04-08 14:15:00,60.3,33.9,29.37,WNW,302,9.0,12.0,37,0.00,,,0.00,Wunderground v.1.15,2013-04-08 21:15:00,
2013-04-08 14:25:00,59.2,34.2,29.38,NW,307,7.0,10.0,39,0.00,,,0.00,Wunderground v.1.15,2013-04-08 21:25:00,
2013-04-08 14:30:00,57.7,39.7,29.38,WSW,248,6.0,6.0,51,0.00,,,0.00,Wunderground v.1.15,2013-04-08 21:30:00,
2013-04-08 14:40:00,58.0,36.8,29.37,West,266,9.0,9.0,45,0.00,,,0.00,Wunderground v.1.15,2013-04-08 21:40:00,
2013-04-08 14:50:00,58.2,33.3,29.38,SW,226,9.0,10.0,39,0.00,,,0.00,Wunderground v.1.15,2013-04-08 21:50:00,
2013-04-08 14:55:00,58.4,34.2,29.38,WNW,285,10.0,10.0,40,0.00,,,0.00,Wunderground v.1.15,2013-04-08 21:55:00,
2013-04-08 15:00:00,59.3,35.0,29.38,WNW,295,9.0,9.0,40,0.00,,,0.00,Wunderground v.1.15,2013-04-08 22:00:00,
2013-04-08 15:10:00,57.7,32.9,29.38,WNW,295,11.0,13.0,39,0.00,,,0.00,Wunderground v.1.15,2013-04-08 22:10:00,
2013-04-08 15:15:00,56.2,33.4,29.39,NW,309,13.0,14.0,42,0.00,,,0.00,Wunderground v.1.15,2013-04-08 22:15:00,
2013-04-08 15:25:00,54.6,34.8,29.40,WSW,245,13.0,14.0,47,0.00,,,0.00,Wunderground v.1.15,2013-04-08 22:25:00,
2013-04-08 15:30:00,52.8,35.6,29.39,WNW,288,13.0,13.0,52,0.00,,,0.00,Wunderground v.1.15,2013-04-08 22:30:00,
2013-04-08 15:40:00,51.9,34.8,29.40,WNW,284,15.0,15.0,52,0.00,,,0.00,Wunderground v.1.15,2013-04-08 22:40:00,
2013-04-08 15:45:00,51.2,34.2,29.40,West,269,14.0,15.0,52,0.00,,,0.00,Wunderground v.1.15,2013-04-08 22:45:00,
2013-04-08 15:55:00,50.6,35.0,29.41,WNW,293,14.0,17.0,55,0.00,,,0.00,Wunderground v.1.15,2013-04-08 22:55:00,
2013-04-08 16:00:00,50.2,34.2,29.40,WNW,296,14.0,17.0,54,0.00,,,0.00,Wunderground v.1.15,2013-04-08 23:00:00,
2013-04-08 16:10:00,49.5,34.9,29.39,WNW,293,15.0,18.0,57,0.00,,,0.00,Wunderground v.1.15,2013-04-08 23:10:00,
2013-04-08 16:15:00,49.1,34.9,29.39,West,276,15.0,18.0,58,0.00,,,0.00,Wunderground v.1.15,2013-04-08 23:15:00,
2013-04-08 16:25:00,49.3,35.6,29.38,West,260,18.0,21.0,59,0.00,,,0.00,Wunderground v.1.15,2013-04-08 23:25:00,
2013-04-08 16:30:00,49.0,34.0,29.38,WNW,290,18.0,18.0,56,0.00,,,0.00,Wunderground v.1.15,2013-04-08 23:30:00,
2013-04-08 16:40:00,50.2,32.8,29.38,West,279,17.0,17.0,51,0.00,,,0.00,Wunderground v.1.15,2013-04-08 23:40:00,
2013-04-08 16:45:00,50.3,32.4,29.38,WNW,302,17.0,18.0,50,0.00,,,0.00,Wunderground v.1.15,2013-04-08 23:45:00,
2013-04-08 16:55:00,51.0,31.5,29.39,NW,309,13.0,14.0,47,0.00,,,0.00,Wunderground v.1.15,2013-04-08 23:55:00,
2013-04-08 17:00:00,50.3,33.3,29.39,West,273,15.0,17.0,52,0.00,,,0.00,Wunderground v.1.15,2013-04-09 00:00:00,
2013-04-08 17:10:00,50.2,31.8,29.39,West,276,16.0,16.0,49,0.00,,,0.00,Wunderground v.1.15,2013-04-09 00:10:00,
2013-04-08 17:15:00,50.6,32.1,29.42,West,265,16.0,17.0,49,0.00,,,0.00,Wunderground v.1.15,2013-04-09 00:15:00,
2013-04-08 17:25:00,47.9,33.8,29.40,West,280,14.0,16.0,58,0.00,,,0.00,Wunderground v.1.15,2013-04-09 00:25:00,
2013-04-08 17:31:00,49.1,33.2,29.40,WNW,296,12.0,12.0,54,0.00,,,0.00,Wunderground v.1.15,2013-04-09 00:31:00,
2013-04-08 17:40:00,50.7,30.1,29.41,SW,232,10.0,10.0,45,0.00,,,0.00,Wunderground v.1.15,2013-04-09 00:40:00,
2013-04-08 17:45:00,51.3,29.5,29.41,NW,306,8.0,11.0,43,0.00,,,0.00,Wunderground v.1.15,2013-04-09 00:45:00,
2013-04-08 17:55:00,51.7,29.3,29.42,WNW,290,9.0,9.0,42,0.00,,,0.00,Wunderground v.1.15,2013-04-09 00:55:00,
2013-04-08 18:00:00,51.7,29.3,29.40,NW,307,7.0,10.0,42,0.00,,,0.00,Wunderground v.1.15,2013-04-09 01:00:00,
2013-04-08 18:10:00,51.9,28.9,29.40,West,264,7.0,7.0,41,0.00,,,0.00,Wunderground v.1.15,2013-04-09 01:10:00,
2013-04-08 18:15:00,52.1,28.5,29.40,West,279,7.0,9.0,40,0.00,,,0.00,Wunderground v.1.15,2013-04-09 01:15:00,
2013-04-08 18:25:00,52.2,28.0,29.41,West,263,9.0,12.0,39,0.00,,,0.00,Wunderground v.1.15,2013-04-09 01:25:00,
2013-04-08 18:30:00,52.3,27.4,29.40,WNW,292,9.0,9.0,38,0.00,,,0.00,Wunderground v.1.15,2013-04-09 01:30:00,
2013-04-08 18:40:00,52.9,25.3,29.39,WNW,297,10.0,12.0,34,0.00,,,0.00,Wunderground v.1.15,2013-04-09 01:40:00,
2013-04-08 18:45:00,53.2,24.8,29.38,South,175,10.0,12.0,33,0.00,,,0.00,Wunderground v.1.15,2013-04-09 01:45:00,
2013-04-08 18:55:00,53.5,23.6,29.38,West,274,8.0,12.0,31,0.00,,,0.00,Wunderground v.1.15,2013-04-09 01:55:00,
2013-04-08 19:00:00,53.9,23.1,29.37,WNW,293,9.0,9.0,30,0.00,,,0.00,Wunderground v.1.15,2013-04-09 02:00:00,
2013-04-08 19:10:00,54.1,22.5,29.36,NW,319,10.0,14.0,29,0.00,,,0.00,Wunderground v.1.15,2013-04-09 02:10:00,
2013-04-08 19:15:00,53.7,23.7,29.38,WNW,302,9.0,14.0,31,0.00,,,0.00,Wunderground v.1.15,2013-04-09 02:15:00,
2013-04-08 19:25:00,53.9,22.3,29.38,West,281,5.0,9.0,29,0.00,,,0.00,Wunderground v.1.15,2013-04-09 02:25:00,
2013-04-08 19:30:00,54.0,21.6,29.38,WNW,283,6.0,6.0,28,0.00,,,0.00,Wunderground v.1.15,2013-04-09 02:30:00,
2013-04-08 19:40:00,54.0,23.2,29.37,West,266,8.0,9.0,30,0.00,,,0.00,Wunderground v.1.15,2013-04-09 02:40:00,
2013-04-08 19:45:00,53.8,23.8,29.38,NW,307,8.0,9.0,31,0.00,,,0.00,Wunderground v.1.15,2013-04-09 02:45:00,
2013-04-08 19:55:00,53.6,25.2,29.37,NW,314,6.0,9.0,33,0.00,,,0.00,Wunderground v.1.15,2013-04-09 02:55:00,
2013-04-08 20:00:00,53.2,25.5,29.37,NW,318,9.0,10.0,34,0.00,,,0.00,Wunderground v.1.15,2013-04-09 03:00:00,
2013-04-08 20:10:00,52.2,28.0,29.38,NW,305,7.0,10.0,39,0.00,,,0.00,Wunderground v.1.15,2013-04-09 03:10:00,
2013-04-08 20:15:00,52.0,28.4,29.38,North,359,7.0,10.0,40,0.00,,,0.00,Wunderground v.1.15,2013-04-09 03:15:00,
2013-04-08 20:25:00,51.9,27.7,29.39,NW,314,6.0,11.0,39,0.00,,,0.00,Wunderground v.1.15,2013-04-09 03:25:00,
2013-04-08 20:30:00,51.9,27.1,29.40,NNE,20,6.0,6.0,38,0.00,,,0.00,Wunderground v.1.15,2013-04-09 03:30:00,
2013-04-08 20:40:00,51.7,27.5,29.41,NW,323,5.0,7.0,39,0.00,,,0.00,Wunderground v.1.15,2013-04-09 03:40:00,
2013-04-08 20:45:00,51.4,27.9,29.42,NW,316,7.0,7.0,40,0.00,,,0.00,Wunderground v.1.15,2013-04-09 03:45:00,
2013-04-08 20:55:00,51.1,28.2,29.42,NW,322,8.0,8.0,41,0.00,,,0.00,Wunderground v.1.15,2013-04-09 03:55:00,
2013-04-08 21:00:00,50.9,28.0,29.42,NNE,17,7.0,7.0,41,0.00,,,0.00,Wunderground v.1.15,2013-04-09 04:00:00,
2013-04-08 21:05:00,50.8,28.5,29.42,NNW,342,7.0,7.0,42,0.00,,,0.00,Wunderground v.1.15,2013-04-09 04:05:00,
2013-04-08 21:15:00,50.4,28.7,29.42,NW,311,9.0,9.0,43,0.00,,,0.00,Wunderground v.1.15,2013-04-09 04:15:00,
2013-04-08 21:25:00,50.2,29.1,29.42,North,354,8.0,9.0,44,0.00,,,0.00,Wunderground v.1.15,2013-04-09 04:25:00,
2013-04-08 21:30:00,50.0,28.9,29.42,NNW,335,6.0,8.0,44,0.00,,,0.00,Wunderground v.1.15,2013-04-09 04:30:00,
2013-04-08 21:35:00,49.9,29.4,29.42,NW,320,5.0,8.0,45,0.00,,,0.00,Wunderground v.1.15,2013-04-09 04:35:00,
2013-04-08 21:40:00,49.8,29.3,29.42,NW,317,6.0,6.0,45,0.00,,,0.00,Wunderground v.1.15,2013-04-09 04:40:00,
2013-04-08 21:45:00,49.7,29.7,29.42,North,350,7.0,7.0,46,0.00,,,0.00,Wunderground v.1.15,2013-04-09 04:45:00,
2013-04-08 21:55:00,48.9,30.6,29.42,NNW,340,7.0,8.0,49,0.00,,,0.00,Wunderground v.1.15,2013-04-09 04:55:00,
2013-04-08 22:00:00,48.6,30.8,29.42,NNW,343,5.0,5.0,50,0.00,,,0.00,Wunderground v.1.15,2013-04-09 05:00:00,
2013-04-08 22:10:00,48.5,30.7,29.42,North,349,4.0,7.0,50,0.00,,,0.00,Wunderground v.1.15,2013-04-09 05:10:00,